createdAt,value
2022-12-03T00:00:40.403Z,15.14
2022-12-03T00:03:07.560Z,15.18
2022-12-03T00:05:34.668Z,15.21
2022-12-03T00:08:03.658Z,15.24
2022-12-03T00:10:30.945Z,15.27
2022-12-03T00:12:58.064Z,15.29
2022-12-03T00:15:25.068Z,15.33
2022-12-03T00:17:52.149Z,15.38
2022-12-03T00:20:23.101Z,15.42
2022-12-03T00:22:50.346Z,15.46
2022-12-03T00:25:17.892Z,15.49
2022-12-03T00:27:44.849Z,15.51
2022-12-03T00:30:13.473Z,15.52
2022-12-03T00:32:41.852Z,15.53
2022-12-03T00:35:09.775Z,15.53
2022-12-03T00:37:36.685Z,15.52
2022-12-03T00:40:05.429Z,15.51
2022-12-03T00:42:32.333Z,15.50
2022-12-03T00:44:59.410Z,15.49
2022-12-03T00:47:26.459Z,15.47
2022-12-03T00:49:53.673Z,15.44
2022-12-03T00:52:20.770Z,15.41
2022-12-03T00:54:49.163Z,15.38
2022-12-03T00:57:16.388Z,15.34
2022-12-03T00:59:43.533Z,15.30
2022-12-03T01:02:11.142Z,15.26
2022-12-03T01:04:38.653Z,15.23
2022-12-03T01:07:05.732Z,15.19
2022-12-03T01:09:32.870Z,15.17
2022-12-03T01:12:00.033Z,15.14
2022-12-03T01:14:27.018Z,15.12
2022-12-03T01:16:54.025Z,15.11
2022-12-03T01:19:21.289Z,15.10
2022-12-03T01:21:50.602Z,15.11
2022-12-03T01:24:19.360Z,15.12
2022-12-03T01:26:46.437Z,15.15
2022-12-03T01:29:14.513Z,15.17
2022-12-03T01:32:00.208Z,15.20
2022-12-03T01:34:27.703Z,15.22
2022-12-03T01:36:54.825Z,15.25
2022-12-03T01:39:22.030Z,15.28
2022-12-03T01:41:51.710Z,15.31
2022-12-03T01:44:23.269Z,15.34
2022-12-03T01:46:52.308Z,15.37
2022-12-03T01:49:22.405Z,15.40
2022-12-03T01:51:51.840Z,15.43
2022-12-03T01:54:22.407Z,15.46
2022-12-03T01:56:49.755Z,15.48
2022-12-03T01:59:19.733Z,15.51
2022-12-03T02:01:46.870Z,15.54
2022-12-03T02:04:16.220Z,15.56
2022-12-03T02:06:44.279Z,15.58
2022-12-03T02:09:13.368Z,15.61
2022-12-03T02:11:45.378Z,15.63
2022-12-03T02:14:17.791Z,15.66
2022-12-03T02:16:45.321Z,15.68
2022-12-03T02:19:30.694Z,15.70
2022-12-03T02:22:19.699Z,15.73
2022-12-03T02:24:59.062Z,15.74
2022-12-03T02:27:28.368Z,15.76
2022-12-03T02:29:55.988Z,15.78
2022-12-03T02:32:23.629Z,15.80
2022-12-03T02:34:51.880Z,15.82
2022-12-03T02:37:26.636Z,15.84
2022-12-03T02:40:00.192Z,15.86
2022-12-03T02:42:36.870Z,15.88
2022-12-03T02:45:06.819Z,15.90
2022-12-03T02:47:45.942Z,15.92
2022-12-03T02:50:15.968Z,15.93
2022-12-03T02:52:45.257Z,15.95
2022-12-03T02:55:14.188Z,15.96
2022-12-03T02:57:42.893Z,15.97
2022-12-03T03:00:11.037Z,15.98
2022-12-03T03:02:40.558Z,15.99
2022-12-03T03:05:11.364Z,16.00
2022-12-03T03:07:39.860Z,16.00
2022-12-03T03:10:09.506Z,16.01
2022-12-03T03:12:39.413Z,16.02
2022-12-03T03:15:08.398Z,16.04
2022-12-03T03:17:36.048Z,16.05
2022-12-03T03:20:04.388Z,16.06
2022-12-03T03:22:38.823Z,16.08
2022-12-03T03:25:08.887Z,16.09
2022-12-03T03:27:36.987Z,16.10
2022-12-03T03:30:04.328Z,16.12
2022-12-03T03:32:31.389Z,16.13
2022-12-03T03:34:58.673Z,16.14
2022-12-03T03:37:26.442Z,16.15
2022-12-03T03:39:54.195Z,16.17
2022-12-03T03:42:21.665Z,16.18
2022-12-03T03:44:50.082Z,16.19
2022-12-03T03:47:19.170Z,16.20
2022-12-03T03:49:48.105Z,16.22
2022-12-03T03:52:15.305Z,16.23
2022-12-03T03:54:42.423Z,16.24
2022-12-03T03:57:09.469Z,16.25
2022-12-03T03:59:36.677Z,16.26
2022-12-03T04:02:03.873Z,16.27
2022-12-03T04:04:35.475Z,16.28
2022-12-03T04:07:02.703Z,16.29
2022-12-03T04:09:29.747Z,16.30
2022-12-03T04:12:15.663Z,16.31
2022-12-03T04:14:42.727Z,16.32
2022-12-03T04:17:09.874Z,16.32
2022-12-03T04:19:36.829Z,16.32
2022-12-03T04:22:22.509Z,16.32
2022-12-03T04:24:49.570Z,16.32
2022-12-03T04:27:35.046Z,16.32
2022-12-03T04:30:02.169Z,16.30
2022-12-03T04:32:47.969Z,16.28
2022-12-03T04:35:33.882Z,16.26
2022-12-03T04:38:02.223Z,16.24
2022-12-03T04:40:47.557Z,16.22
2022-12-03T04:43:14.563Z,16.20
2022-12-03T04:45:41.560Z,16.18
2022-12-03T04:48:08.605Z,16.17
2022-12-03T04:50:35.585Z,16.18
2022-12-03T04:53:02.695Z,16.18
2022-12-03T04:55:30.183Z,16.18
2022-12-03T04:57:57.197Z,16.19
2022-12-03T05:00:24.559Z,16.19
2022-12-03T05:02:51.554Z,16.19
2022-12-03T05:05:18.855Z,16.20
2022-12-03T05:07:45.884Z,16.20
2022-12-03T05:10:13.049Z,16.20
2022-12-03T05:12:40.061Z,16.19
2022-12-03T05:15:07.846Z,16.19
2022-12-03T05:17:34.962Z,16.19
2022-12-03T05:20:20.564Z,16.19
2022-12-03T05:22:47.593Z,16.20
2022-12-03T05:25:14.596Z,16.20
2022-12-03T05:27:41.646Z,16.21
2022-12-03T05:30:09.173Z,16.21
2022-12-03T05:32:36.450Z,16.21
2022-12-03T05:35:03.545Z,16.21
2022-12-03T05:37:30.662Z,16.21
2022-12-03T05:39:57.612Z,16.20
2022-12-03T05:42:45.023Z,16.19
2022-12-03T05:45:12.109Z,16.18
2022-12-03T05:47:39.099Z,16.16
2022-12-03T05:50:06.985Z,16.14
2022-12-03T05:52:34.045Z,16.12
2022-12-03T05:55:01.190Z,16.11
2022-12-03T05:57:29.120Z,16.09
2022-12-03T05:59:56.309Z,16.07
2022-12-03T06:02:23.532Z,16.05
2022-12-03T06:04:50.966Z,16.03
2022-12-03T06:07:18.177Z,16.02
2022-12-03T06:09:45.198Z,16.00
2022-12-03T06:12:12.515Z,15.98
2022-12-03T06:14:39.574Z,15.95
2022-12-03T06:17:06.572Z,15.92
2022-12-03T06:19:34.244Z,15.88
2022-12-03T06:22:01.168Z,15.84
2022-12-03T06:24:28.320Z,15.80
2022-12-03T06:26:55.331Z,15.77
2022-12-03T06:29:22.323Z,15.73
2022-12-03T06:31:49.268Z,15.71
2022-12-03T06:34:16.340Z,15.68
2022-12-03T06:36:43.251Z,15.67
2022-12-03T06:39:10.407Z,15.66
2022-12-03T06:41:37.303Z,15.65
2022-12-03T06:44:04.549Z,15.66
2022-12-03T06:46:31.591Z,15.67
2022-12-03T06:48:58.685Z,15.69
2022-12-03T06:51:25.669Z,15.71
2022-12-03T06:53:52.905Z,15.73
2022-12-03T06:56:22.237Z,15.76
2022-12-03T06:58:49.712Z,15.77
2022-12-03T07:01:16.831Z,15.79
2022-12-03T07:03:43.983Z,15.82
2022-12-03T07:06:10.893Z,15.84
2022-12-03T07:08:38.042Z,15.86
2022-12-03T07:11:05.273Z,15.89
2022-12-03T07:13:32.326Z,15.92
2022-12-03T07:15:59.280Z,15.96
2022-12-03T07:18:26.349Z,16.01
2022-12-03T07:20:53.347Z,16.06
2022-12-03T07:23:20.439Z,16.11
2022-12-03T07:25:47.346Z,16.16
2022-12-03T07:28:14.313Z,16.21
2022-12-03T07:30:41.413Z,16.27
2022-12-03T07:33:08.288Z,16.34
2022-12-03T07:35:35.375Z,16.42
2022-12-03T07:38:02.300Z,16.51
2022-12-03T07:40:29.369Z,16.60
2022-12-03T07:42:56.336Z,16.69
2022-12-03T07:45:23.413Z,16.78
2022-12-03T07:47:50.493Z,16.87
2022-12-03T07:50:17.951Z,16.97
2022-12-03T07:52:45.047Z,17.06
2022-12-03T07:55:12.825Z,17.14
2022-12-03T07:57:39.943Z,17.22
2022-12-03T08:00:07.982Z,17.29
2022-12-03T08:02:35.658Z,17.35
2022-12-03T08:05:02.609Z,17.41
2022-12-03T08:07:29.625Z,17.47
2022-12-03T08:09:57.551Z,17.53
2022-12-03T08:12:40.245Z,17.58
2022-12-03T08:15:16.230Z,17.63
2022-12-03T08:17:44.857Z,17.67
2022-12-03T08:20:23.941Z,17.70
2022-12-03T08:22:53.439Z,17.73
2022-12-03T08:25:29.248Z,17.74
2022-12-03T08:28:02.757Z,17.75
2022-12-03T08:30:29.749Z,17.76
2022-12-03T08:32:58.612Z,17.76
2022-12-03T08:35:30.739Z,17.76
2022-12-03T08:38:12.463Z,17.76
2022-12-03T08:40:43.168Z,17.76
2022-12-03T08:43:29.420Z,17.76
2022-12-03T08:45:57.615Z,17.77
2022-12-03T08:48:42.789Z,17.77
2022-12-03T08:51:21.872Z,17.77
2022-12-03T08:53:55.379Z,17.78
2022-12-03T08:56:30.349Z,17.78
2022-12-03T08:59:29.383Z,17.78
2022-12-03T09:01:58.385Z,17.79
2022-12-03T09:04:46.814Z,17.79
2022-12-03T09:07:13.842Z,17.79
2022-12-03T09:09:40.841Z,17.80
2022-12-03T09:12:07.905Z,17.81
2022-12-03T09:14:34.919Z,17.81
2022-12-03T09:17:01.890Z,17.81
2022-12-03T09:19:31.264Z,17.81
2022-12-03T09:21:58.429Z,17.82
2022-12-03T09:24:25.469Z,17.83
2022-12-03T09:26:52.377Z,17.85
2022-12-03T09:29:19.536Z,17.86
2022-12-03T09:31:46.583Z,17.86
2022-12-03T09:34:13.643Z,17.87
2022-12-03T09:36:40.927Z,17.87
2022-12-03T09:39:07.897Z,17.87
2022-12-03T09:41:35.122Z,17.86
2022-12-03T09:44:04.330Z,17.86
2022-12-03T09:46:34.340Z,17.85
2022-12-03T09:49:02.267Z,17.83
2022-12-03T09:51:33.670Z,17.81
2022-12-03T09:54:03.138Z,17.81
2022-12-03T09:56:30.555Z,17.80
2022-12-03T09:58:57.855Z,17.79
2022-12-03T10:01:29.972Z,17.79
2022-12-03T10:03:58.785Z,17.79
2022-12-03T10:06:25.748Z,17.79
2022-12-03T10:08:55.378Z,17.79
2022-12-03T10:11:25.032Z,17.79
2022-12-03T10:13:56.659Z,17.79
2022-12-03T10:16:25.347Z,17.79
2022-12-03T10:18:59.640Z,17.79
2022-12-03T10:21:31.485Z,17.79
2022-12-03T10:24:17.182Z,17.79
2022-12-03T10:26:46.093Z,17.79
2022-12-03T10:29:34.728Z,17.78
2022-12-03T10:32:11.932Z,17.77
2022-12-03T10:34:41.374Z,17.76
2022-12-03T10:37:17.500Z,17.75
2022-12-03T10:40:13.964Z,17.75
2022-12-03T10:42:41.445Z,17.74
2022-12-03T10:45:15.505Z,17.74
2022-12-03T10:47:43.939Z,17.73
2022-12-03T10:50:19.735Z,17.73
2022-12-03T10:52:48.115Z,17.72
2022-12-03T10:55:16.198Z,17.72
2022-12-03T10:57:46.149Z,17.72
2022-12-03T11:00:19.175Z,17.72
2022-12-03T11:02:54.656Z,17.72
2022-12-03T11:05:27.675Z,17.71
2022-12-03T11:07:55.844Z,17.71
2022-12-03T11:10:23.147Z,17.71
2022-12-03T11:13:34.060Z,17.71
2022-12-03T11:16:03.313Z,17.70
2022-12-03T11:18:36.480Z,17.70
2022-12-03T11:21:08.171Z,17.69
2022-12-03T11:23:44.411Z,17.68
2022-12-03T11:26:17.061Z,17.68
2022-12-03T11:28:54.933Z,17.69
2022-12-03T11:31:42.283Z,17.70
2022-12-03T11:34:18.545Z,17.71
2022-12-03T11:37:10.476Z,17.72
2022-12-03T11:39:49.874Z,17.72
2022-12-03T11:42:28.722Z,17.73
2022-12-03T11:45:05.426Z,17.75
2022-12-03T11:47:38.237Z,17.78
2022-12-03T11:50:22.743Z,17.81
2022-12-03T11:52:55.585Z,17.84
2022-12-03T11:55:31.241Z,17.88
2022-12-03T11:58:03.968Z,17.91
2022-12-03T12:00:31.337Z,17.94
2022-12-03T12:02:59.011Z,17.98
2022-12-03T12:05:35.746Z,18.00
2022-12-03T12:08:03.433Z,18.01
2022-12-03T12:10:50.064Z,18.02
2022-12-03T12:13:31.855Z,18.03
2022-12-03T12:16:00.862Z,18.03
2022-12-03T12:18:37.956Z,18.03
2022-12-03T12:21:43.467Z,18.03
2022-12-03T12:24:30.521Z,18.03
2022-12-03T12:27:03.001Z,18.03
2022-12-03T12:29:30.154Z,18.04
2022-12-03T12:32:09.399Z,18.04
2022-12-03T12:34:45.407Z,18.04
2022-12-03T12:37:17.626Z,18.04
2022-12-03T12:39:44.684Z,18.04
2022-12-03T12:42:36.261Z,18.03
2022-12-03T12:45:15.019Z,18.02
2022-12-03T12:48:03.419Z,18.01
2022-12-03T12:50:33.339Z,18.00
2022-12-03T12:53:28.413Z,17.99
2022-12-03T12:56:17.861Z,17.97
2022-12-03T12:58:45.024Z,17.94
2022-12-03T13:01:21.905Z,17.92
2022-12-03T13:03:51.738Z,17.89
2022-12-03T13:06:27.732Z,17.85
2022-12-03T13:08:55.308Z,17.79
2022-12-03T13:11:25.140Z,17.72
2022-12-03T13:13:52.684Z,17.65
2022-12-03T13:16:22.505Z,17.59
2022-12-03T13:18:54.487Z,17.55
2022-12-03T13:21:40.876Z,17.52
2022-12-03T13:24:34.744Z,17.49
2022-12-03T13:27:13.870Z,17.46
2022-12-03T13:29:40.984Z,17.44
2022-12-03T13:32:32.512Z,17.42
2022-12-03T13:35:27.040Z,17.40
2022-12-03T13:37:54.341Z,17.39
2022-12-03T13:40:42.000Z,17.38
2022-12-03T13:43:19.001Z,17.37
2022-12-03T13:45:49.511Z,17.35
2022-12-03T13:48:23.231Z,17.35
2022-12-03T13:50:51.760Z,17.34
2022-12-03T13:53:47.818Z,17.34
2022-12-03T13:56:31.871Z,17.33
2022-12-03T13:59:00.714Z,17.33
2022-12-03T14:01:28.739Z,17.34
2022-12-03T14:03:56.678Z,17.34
2022-12-03T14:06:23.800Z,17.35
2022-12-03T14:08:51.594Z,17.35
2022-12-03T14:11:54.186Z,17.36
2022-12-03T14:14:21.280Z,17.37
2022-12-03T14:16:48.380Z,17.38
2022-12-03T14:19:15.534Z,17.39
2022-12-03T14:21:42.650Z,17.40
2022-12-03T14:24:09.670Z,17.41
2022-12-03T14:26:36.780Z,17.41
2022-12-03T14:29:08.573Z,17.42
2022-12-03T14:31:36.250Z,17.42
2022-12-03T14:34:03.384Z,17.43
2022-12-03T14:36:30.492Z,17.44
2022-12-03T14:38:57.555Z,17.44
2022-12-03T14:41:43.399Z,17.44
2022-12-03T14:44:10.371Z,17.45
2022-12-03T14:46:37.470Z,17.45
2022-12-03T14:49:04.478Z,17.45
2022-12-03T14:51:31.558Z,17.45
2022-12-03T14:53:58.488Z,17.45
2022-12-03T14:56:25.422Z,17.44
2022-12-03T14:58:52.631Z,17.44
2022-12-03T15:01:19.706Z,17.43
2022-12-03T15:03:46.767Z,17.43
2022-12-03T15:06:14.773Z,17.43
2022-12-03T15:08:41.933Z,17.43
2022-12-03T15:11:08.995Z,17.43
2022-12-03T15:13:36.639Z,17.43
2022-12-03T15:16:04.294Z,17.42
2022-12-03T15:18:31.694Z,17.43
2022-12-03T15:20:58.701Z,17.43
2022-12-03T15:23:25.781Z,17.43
2022-12-03T15:25:52.767Z,17.44
2022-12-03T15:28:19.964Z,17.44
2022-12-03T15:30:47.313Z,17.44
2022-12-03T15:33:14.290Z,17.44
2022-12-03T15:35:43.007Z,17.44
2022-12-03T15:38:10.874Z,17.44
2022-12-03T15:40:38.956Z,17.45
2022-12-03T15:43:08.530Z,17.45
2022-12-03T15:45:36.073Z,17.45
2022-12-03T15:48:04.467Z,17.46
2022-12-03T15:50:35.701Z,17.46
2022-12-03T15:53:06.206Z,17.47
2022-12-03T15:55:33.409Z,17.47
2022-12-03T15:58:00.373Z,17.47
2022-12-03T16:00:28.264Z,17.48
2022-12-03T16:02:55.596Z,17.48
2022-12-03T16:05:22.889Z,17.48
2022-12-03T16:07:50.361Z,17.48
2022-12-03T16:10:21.653Z,17.48
2022-12-03T16:12:51.500Z,17.49
2022-12-03T16:15:22.234Z,17.49
2022-12-03T16:17:53.753Z,17.49
2022-12-03T16:20:20.922Z,17.49
2022-12-03T16:22:48.078Z,17.49
2022-12-03T16:25:15.182Z,17.49
2022-12-03T16:27:42.328Z,17.50
2022-12-03T16:30:10.286Z,17.50
2022-12-03T16:32:37.432Z,17.50
2022-12-03T16:35:04.989Z,17.51
2022-12-03T16:37:32.133Z,17.51
2022-12-03T16:39:59.237Z,17.51
2022-12-03T16:42:27.434Z,17.52
2022-12-03T16:45:03.763Z,17.52
2022-12-03T16:47:34.379Z,17.53
2022-12-03T16:50:03.320Z,17.53
2022-12-03T16:52:30.414Z,17.54
2022-12-03T16:54:57.516Z,17.54
2022-12-03T16:57:28.898Z,17.55
2022-12-03T16:59:59.059Z,17.56
2022-12-03T17:02:27.820Z,17.57
2022-12-03T17:04:55.332Z,17.58
2022-12-03T17:07:22.463Z,17.58
2022-12-03T17:09:49.771Z,17.58
2022-12-03T17:12:16.892Z,17.58
2022-12-03T17:14:44.366Z,17.58
2022-12-03T17:17:11.507Z,17.58
2022-12-03T17:19:38.622Z,17.58
2022-12-03T17:22:05.798Z,17.58
2022-12-03T17:24:32.954Z,17.59
2022-12-03T17:27:00.161Z,17.59
2022-12-03T17:29:27.296Z,17.58
2022-12-03T17:31:56.987Z,17.58
2022-12-03T17:34:24.156Z,17.58
2022-12-03T17:36:51.232Z,17.58
2022-12-03T17:39:18.516Z,17.57
2022-12-03T17:41:45.558Z,17.57
2022-12-03T17:44:17.768Z,17.57
2022-12-03T17:46:47.860Z,17.56
2022-12-03T17:49:15.152Z,17.55
2022-12-03T17:51:42.609Z,17.55
2022-12-03T17:54:11.288Z,17.54
2022-12-03T17:56:39.732Z,17.53
2022-12-03T17:59:06.954Z,17.53
2022-12-03T18:01:34.555Z,17.53
2022-12-03T18:04:02.839Z,17.53
2022-12-03T18:06:30.017Z,17.53
2022-12-03T18:08:57.636Z,17.52
2022-12-03T18:11:24.763Z,17.51
2022-12-03T18:13:51.814Z,17.50
2022-12-03T18:16:18.850Z,17.50
2022-12-03T18:18:46.077Z,17.49
2022-12-03T18:21:13.492Z,17.48
2022-12-03T18:23:41.265Z,17.47
2022-12-03T18:26:08.636Z,17.46
2022-12-03T18:28:35.817Z,17.45
2022-12-03T18:31:06.976Z,17.44
2022-12-03T18:33:34.052Z,17.42
2022-12-03T18:36:01.026Z,17.41
2022-12-03T18:38:31.291Z,17.40
2022-12-03T18:40:58.568Z,17.39
2022-12-03T18:43:28.176Z,17.37
2022-12-03T18:45:55.294Z,17.37
2022-12-03T18:48:22.306Z,17.36
2022-12-03T18:50:49.403Z,17.35
2022-12-03T18:53:18.721Z,17.35
2022-12-03T18:55:47.284Z,17.35
2022-12-03T18:58:14.398Z,17.34
2022-12-03T19:00:42.685Z,17.34
2022-12-03T19:03:10.436Z,17.34
2022-12-03T19:05:37.701Z,17.33
2022-12-03T19:08:12.739Z,17.32
2022-12-03T19:10:40.209Z,17.31
2022-12-03T19:13:07.224Z,17.30
2022-12-03T19:15:37.420Z,17.29
2022-12-03T19:18:07.525Z,17.28
2022-12-03T19:20:35.010Z,17.27
2022-12-03T19:23:02.198Z,17.26
2022-12-03T19:25:29.241Z,17.24
2022-12-03T19:27:57.155Z,17.23
2022-12-03T19:30:24.263Z,17.22
2022-12-03T19:32:51.777Z,17.20
2022-12-03T19:35:21.505Z,17.19
2022-12-03T19:37:49.663Z,17.18
2022-12-03T19:40:17.211Z,17.17
2022-12-03T19:42:44.333Z,17.17
2022-12-03T19:45:11.661Z,17.16
2022-12-03T19:47:38.795Z,17.15
2022-12-03T19:50:06.714Z,17.14
2022-12-03T19:52:36.966Z,17.14
2022-12-03T19:55:04.480Z,17.13
2022-12-03T19:57:31.477Z,17.12
2022-12-03T19:59:58.658Z,17.11
2022-12-03T20:02:25.703Z,17.11
2022-12-03T20:04:52.756Z,17.11
2022-12-03T20:07:19.873Z,17.11
2022-12-03T20:09:50.486Z,17.12
2022-12-03T20:12:19.994Z,17.12
2022-12-03T20:14:50.145Z,17.13
2022-12-03T20:17:19.304Z,17.14
2022-12-03T20:19:46.497Z,17.14
2022-12-03T20:22:13.549Z,17.15
2022-12-03T20:24:40.619Z,17.16
2022-12-03T20:27:07.610Z,17.17
2022-12-03T20:29:40.530Z,17.18
2022-12-03T20:32:07.744Z,17.18
2022-12-03T20:34:36.101Z,17.19
2022-12-03T20:37:03.269Z,17.20
2022-12-03T20:39:30.403Z,17.21
2022-12-03T20:42:00.067Z,17.22
2022-12-03T20:44:30.092Z,17.22
2022-12-03T20:46:57.189Z,17.22
2022-12-03T20:49:24.270Z,17.22
2022-12-03T20:51:51.308Z,17.22
2022-12-03T20:54:26.815Z,17.22
2022-12-03T20:56:59.295Z,17.22
2022-12-03T20:59:26.472Z,17.21
2022-12-03T21:01:53.663Z,17.21
2022-12-03T21:04:21.574Z,17.21
2022-12-03T21:06:50.112Z,17.20
2022-12-03T21:09:20.338Z,17.20
2022-12-03T21:11:47.537Z,17.20
2022-12-03T21:14:14.814Z,17.19
2022-12-03T21:19:30.114Z,17.19
2022-12-03T21:21:57.102Z,17.18
2022-12-03T21:24:24.424Z,17.18
2022-12-03T21:26:51.400Z,17.17
2022-12-03T21:29:18.573Z,17.17
2022-12-03T21:31:45.725Z,17.16
2022-12-03T21:34:13.155Z,17.15
2022-12-03T21:36:40.553Z,17.14
2022-12-03T21:39:08.108Z,17.14
2022-12-03T21:41:37.627Z,17.14
2022-12-03T21:44:04.933Z,17.13
2022-12-03T21:47:11.764Z,17.12
2022-12-03T21:49:20.586Z,17.11
2022-12-03T21:51:47.702Z,17.10
2022-12-03T21:54:15.410Z,17.09
2022-12-03T21:56:42.561Z,17.08
2022-12-03T21:59:09.712Z,17.06
2022-12-03T22:01:36.800Z,17.03
2022-12-03T22:04:04.180Z,17.00
2022-12-03T22:06:31.096Z,16.97
2022-12-03T22:08:58.200Z,16.93
2022-12-03T22:11:25.237Z,16.88
2022-12-03T22:13:52.194Z,16.84
2022-12-03T22:16:21.741Z,16.80
2022-12-03T22:18:50.400Z,16.76
2022-12-03T22:21:19.919Z,16.71
2022-12-03T22:23:46.954Z,16.67
2022-12-03T22:26:16.453Z,16.63
2022-12-03T22:28:46.155Z,16.59
2022-12-03T22:31:15.178Z,16.56
2022-12-03T22:33:43.575Z,16.52
2022-12-03T22:36:18.261Z,16.48
2022-12-03T22:38:47.520Z,16.45
2022-12-03T22:41:15.208Z,16.42
2022-12-03T22:43:42.408Z,16.39
2022-12-03T22:46:12.771Z,16.36
2022-12-03T22:48:41.502Z,16.34
2022-12-03T22:51:18.748Z,16.30
2022-12-03T22:53:46.230Z,16.27
2022-12-03T22:56:13.779Z,16.24
2022-12-03T22:58:41.435Z,16.20
2022-12-03T23:01:08.425Z,16.17
2022-12-03T23:03:36.457Z,16.13
2022-12-03T23:06:10.710Z,16.09
2022-12-03T23:08:37.919Z,16.05
2022-12-03T23:11:05.220Z,16.01
2022-12-03T23:13:32.277Z,15.97
2022-12-03T23:15:59.576Z,15.92
2022-12-03T23:18:26.723Z,15.88
2022-12-03T23:20:56.029Z,15.84
2022-12-03T23:23:25.368Z,15.80
2022-12-03T23:26:05.802Z,15.76
2022-12-03T23:28:35.091Z,15.72
2022-12-03T23:31:02.731Z,15.69
2022-12-03T23:33:31.983Z,15.66
2022-12-03T23:36:06.000Z,15.63
2022-12-03T23:38:32.945Z,15.60
2022-12-03T23:41:11.879Z,15.58
2022-12-03T23:43:39.302Z,15.55
2022-12-03T23:46:09.418Z,15.54
2022-12-03T23:48:37.110Z,15.52
2022-12-03T23:51:08.530Z,15.50
2022-12-03T23:53:36.822Z,15.48
2022-12-03T23:56:09.048Z,15.47
2022-12-03T23:58:36.211Z,15.46
